Time;durP1;ratioP1;P1;durP2;ratioP2;P2;SDS_P1;SDS_P2;PMS_P1;PMS_P2;Temp;Humidity;BMP_temperature;BMP_pressure;BME280_temperature;BME280_humidity;BME280_pressure;Samples;Min_cycle;Max_cycle;Signal;HPM_P1;HPM_P2
2022/05/18 00:00:51;;;;;;;12.18;2.70;;;16.60;99.90;;;;;;5046877;28;20021;-76
2022/05/18 00:03:21;;;;;;;8.93;2.88;;;16.50;99.90;;;;;;5050884;28;20041;-77
2022/05/18 00:05:47;;;;;;;6.78;2.63;;;16.40;99.90;;;;;;5051873;28;20072;-73
2022/05/18 00:08:13;;;;;;;9.73;2.70;;;16.40;99.90;;;;;;5058941;28;20033;-74
2022/05/18 00:10:41;;;;;;;6.30;2.15;;;16.40;99.90;;;;;;5042454;28;20062;-75
2022/05/18 00:13:08;;;;;;;9.40;2.35;;;16.30;99.90;;;;;;5036256;28;20026;-76
2022/05/18 00:15:34;;;;;;;11.07;1.88;;;16.30;99.90;;;;;;5035747;28;20022;-76
2022/05/18 00:18:00;;;;;;;5.15;1.90;;;16.30;99.90;;;;;;5037038;28;20083;-77
2022/05/18 00:20:26;;;;;;;11.35;1.90;;;17.30;99.90;;;;;;5037790;28;20473;-77
2022/05/18 00:22:55;;;;;;;5.10;1.90;;;;;;;;;;5037020;28;20056;-76
2022/05/18 00:25:23;;;;;;;4.18;1.75;;;;;;;;;;5035142;28;20030;-76
2022/05/18 00:27:49;;;;;;;7.07;1.83;;;;;;;;;;5035812;28;20037;-76
2022/05/18 00:30:17;;;;;;;11.90;1.83;;;;;;;;;;5034723;28;20704;-77
2022/05/18 00:32:43;;;;;;;6.45;1.40;;;;;;;;;;5034165;28;20077;-77
2022/05/18 00:35:10;;;;;;;6.65;1.83;;;;;;;;;;5034482;28;20021;-77
2022/05/18 00:37:36;;;;;;;3.70;1.48;;;;;;;;;;5038425;28;20049;-76
2022/05/18 00:40:02;;;;;;;3.55;1.45;;;;;;;;;;5038622;28;20052;-75
2022/05/18 00:42:28;;;;;;;6.80;1.48;;;;;;;;;;5038542;28;20017;-77
2022/05/18 00:44:55;;;;;;;3.45;1.45;;;;;;;;;;5037354;28;20025;-77
2022/05/18 00:47:21;;;;;;;11.13;1.63;;;;;;;;;;5034658;28;20022;-77
2022/05/18 00:49:50;;;;;;;3.13;1.45;;;;;;;;;;5034537;28;20026;-77
2022/05/18 00:52:17;;;;;;;8.90;1.40;;;;;;;;;;5038239;28;20375;-76
2022/05/18 00:54:43;;;;;;;5.18;1.30;;;;;;;;;;5038588;28;20022;-77
2022/05/18 00:57:16;;;;;;;4.30;1.33;;;;;;;;;;5035856;28;20040;-77
2022/05/18 00:59:47;;;;;;;8.68;1.77;;;;;;;;;;5036517;28;20155;-75
2022/05/18 01:02:13;;;;;;;3.17;1.30;;;;;;;;;;5035793;28;20108;-77
2022/05/18 01:04:41;;;;;;;10.38;1.60;;;;;;;;;;5035957;28;20108;-77
2022/05/18 01:07:13;;;;;;;5.97;1.40;;;;;;;;;;5035334;28;20367;-77
2022/05/18 01:09:43;;;;;;;6.68;1.60;;;;;;;;;;5033335;28;20037;-76
2022/05/18 01:12:12;;;;;;;5.85;1.52;;;;;;;;;;5035492;28;20056;-75
2022/05/18 01:14:58;;;;;;;4.45;1.27;;;;;;;;;;5034689;28;20034;-77
2022/05/18 01:17:25;;;;;;;6.32;1.38;;;;;;;;;;5033537;28;20043;-77
2022/05/18 01:19:52;;;;;;;3.95;1.17;;;;;;;;;;5034024;28;20017;-76
2022/05/18 01:22:27;;;;;;;9.57;1.48;;;;;;;;;;5035556;28;20037;-73
2022/05/18 01:25:09;;;;;;;4.30;1.50;;;;;;;;;;5031895;28;20479;-76
2022/05/18 01:27:35;;;;;;;5.55;1.27;;;;;;;;;;5032234;28;20113;-73
2022/05/18 01:30:01;;;;;;;3.63;1.45;;;;;;;;;;5031451;28;20032;-72
2022/05/18 01:32:37;;;;;;;4.32;1.83;;;;;;;;;;5032710;28;20037;-73
2022/05/18 01:35:04;;;;;;;7.25;2.20;;;;;;;;;;5032690;28;20029;-71
2022/05/18 01:37:29;;;;;;;6.10;2.20;;;;;;;;;;5032354;28;20122;-73
2022/05/18 01:39:59;;;;;;;7.05;1.60;;;;;;;;;;5033165;28;20471;-73
2022/05/18 01:42:31;;;;;;;10.20;1.95;;;;;;;;;;5034203;28;20032;-74
2022/05/18 01:44:57;;;;;;;5.80;1.67;;;;;;;;;;5035689;28;20029;-73
2022/05/18 01:47:23;;;;;;;3.63;1.40;;;;;;;;;;5036568;28;20100;-73
2022/05/18 01:49:49;;;;;;;9.50;1.08;;;;;;;;;;5036570;28;20073;-72
2022/05/18 01:52:16;;;;;;;8.43;1.67;;;;;;;;;;5034978;28;20125;-73
2022/05/18 01:54:47;;;;;;;4.25;1.70;;;;;;;;;;5038531;28;20030;-75
2022/05/18 01:57:13;;;;;;;4.40;1.38;;;;;;;;;;5036921;28;20026;-72
2022/05/18 01:59:40;;;;;;;5.25;2.00;;;;;;;;;;5035855;28;20037;-73
2022/05/18 02:02:06;;;;;;;5.25;1.45;;;;;;;;;;5036015;28;20022;-73
2022/05/18 02:04:33;;;;;;;6.53;2.80;;;;;;;;;;5035593;28;20026;-74
2022/05/18 02:06:59;;;;;;;14.32;3.72;;;;;;;;;;5033743;28;20025;-71
2022/05/18 02:09:26;;;;;;;14.50;2.17;;;;;;;;;;5035504;28;20028;-72
2022/05/18 02:11:52;;;;;;;4.68;2.13;;;;;;;;;;5035734;28;20391;-72
2022/05/18 02:14:19;;;;;;;4.97;1.60;;;;;;;;;;5036217;28;20382;-72
2022/05/18 02:16:45;;;;;;;5.18;1.50;;;;;;;;;;5036791;28;20021;-73
2022/05/18 02:19:11;;;;;;;4.22;1.50;;;;;;;;;;5038217;28;20390;-73
2022/05/18 02:21:37;;;;;;;8.10;2.17;;;;;;;;;;5038599;28;20056;-74
2022/05/18 02:24:03;;;;;;;11.80;2.10;;;;;;;;;;5041015;28;20022;-75
2022/05/18 02:26:29;;;;;;;5.47;1.25;;;;;;;;;;5035931;28;20104;-73
2022/05/18 02:28:54;;;;;;;5.80;1.30;;;;;;;;;;5035394;28;20085;-73
2022/05/18 02:31:20;;;;;;;9.23;1.60;;;;;;;;;;5034158;28;20056;-74
2022/05/18 02:33:46;;;;;;;5.97;1.50;;;;;;;;;;5035805;28;20056;-75
2022/05/18 02:36:12;;;;;;;10.85;1.50;;;;;;;;;;5035588;28;20021;-74
2022/05/18 02:38:39;;;;;;;5.25;1.55;;;;;;;;;;5043973;28;20030;-73
2022/05/18 02:41:05;;;;;;;4.30;1.25;;;;;;;;;;5043689;28;20041;-75
2022/05/18 02:43:31;;;;;;;3.53;1.25;;;;;;;;;;5043182;28;20021;-74
2022/05/18 02:46:03;;;;;;;5.57;1.58;;;;;;;;;;5035527;28;20026;-74
2022/05/18 02:48:29;;;;;;;9.45;1.50;;;;;;;;;;5042315;28;20052;-74
2022/05/18 02:50:56;;;;;;;4.72;1.30;;;;;;;;;;5051869;28;20006;-74
2022/05/18 02:53:22;;;;;;;9.38;1.23;;;;;;;;;;5055197;28;20057;-77
2022/05/18 02:56:06;;;;;;;11.77;1.30;;;;;;;;;;5053716;28;20101;-74
2022/05/18 02:58:33;;;;;;;8.15;1.60;;;;;;;;;;5055498;28;20029;-74
2022/05/18 03:01:00;;;;;;;4.18;1.35;;;;;;;;;;5047170;28;20029;-74
2022/05/18 03:03:27;;;;;;;3.38;1.40;;;;;;;;;;5034415;28;20028;-74
2022/05/18 03:05:53;;;;;;;6.63;1.40;;;;;;;;;;5034684;28;20447;-74
2022/05/18 03:08:19;;;;;;;2.83;1.35;;;;;;;;;;5034901;28;20079;-75
2022/05/18 03:10:45;;;;;;;6.50;1.30;;;;;;;;;;5034627;28;20029;-73
2022/05/18 03:13:11;;;;;;;7.78;1.52;;;;;;;;;;5035400;28;20088;-75
2022/05/18 03:15:37;;;;;;;3.33;1.48;;;;;;;;;;5040138;28;20152;-75
2022/05/18 03:18:03;;;;;;;5.50;2.15;;;;;;;;;;5039830;28;20043;-75
2022/05/18 03:25:58;;;;;;;10.48;1.90;;;;;;;;;;5034511;28;20068;-73
2022/05/18 03:28:24;;;;;;;8.05;1.52;;;;;;;;;;5035438;28;20064;-75
2022/05/18 03:30:50;;;;;;;6.82;1.70;;;;;;;;;;5036009;28;20033;-77
2022/05/18 03:33:16;;;;;;;5.60;1.50;;;;;;;;;;5035119;28;20034;-74
2022/05/18 03:35:42;;;;;;;5.88;1.50;;;;;;;;;;5032944;28;20036;-74
2022/05/18 03:38:08;;;;;;;3.47;1.45;;;;;;;;;;5034236;28;20113;-75
2022/05/18 03:40:36;;;;;;;2.97;1.45;;;;;;;;;;5032828;28;20025;-75
2022/05/18 03:43:03;;;;;;;7.60;1.58;;;;;;;;;;5034003;28;20103;-76
2022/05/18 03:45:29;;;;;;;15.40;2.00;;;;;;;;;;5033983;28;20033;-73
2022/05/18 03:47:55;;;;;;;6.53;1.55;;;;;;;;;;5034305;28;20040;-73
2022/05/18 03:50:21;;;;;;;7.60;1.50;;;;;;;;;;5034098;28;20390;-73
2022/05/18 03:52:47;;;;;;;10.40;1.52;;;;;;;;;;5033844;28;20477;-74
2022/05/18 03:55:13;;;;;;;8.57;1.40;;;;;;;;;;5033972;28;20120;-76
2022/05/18 03:57:39;;;;;;;6.38;1.83;;;;;;;;;;5032673;28;20021;-75
2022/05/18 04:00:06;;;;;;;10.50;1.80;;;;;;;;;;5034237;28;20366;-73
2022/05/18 04:02:33;;;;;;;6.07;1.90;;;;;;;;;;5034012;28;20017;-75
2022/05/18 04:04:59;;;;;;;5.50;2.10;;;;;;;;;;5034336;28;20063;-74
2022/05/18 04:07:25;;;;;;;9.07;1.70;;;;;;;;;;5033773;28;20022;-75
2022/05/18 04:09:51;;;;;;;7.65;1.73;;;;;;;;;;5033589;28;20029;-74
2022/05/18 04:12:17;;;;;;;10.32;1.80;;;;;;;;;;5033719;28;20492;-74
2022/05/18 04:14:43;;;;;;;10.75;1.73;;;;;;;;;;5033854;28;20065;-74
2022/05/18 04:17:09;;;;;;;5.90;1.75;;;;;;;;;;5034052;28;20025;-76
2022/05/18 04:19:35;;;;;;;6.88;1.63;;;;;;;;;;5033535;28;20053;-74
2022/05/18 04:22:01;;;;;;;10.27;1.80;;;;;;;;;;5033426;28;20036;-74
2022/05/18 04:24:27;;;;;;;9.48;1.80;;;;;;;;;;5033498;28;20442;-73
2022/05/18 04:26:54;;;;;;;13.25;2.92;;;;;;;;;;5033661;28;20056;-73
2022/05/18 04:29:19;;;;;;;6.28;1.80;;;;;;;;;;5034281;28;20022;-74
2022/05/18 04:31:46;;;;;;;9.30;2.00;;;;;;;;;;5033461;28;20083;-74
2022/05/18 04:34:12;;;;;;;6.03;1.90;;;;;;;;;;5032659;28;20052;-73
2022/05/18 04:36:38;;;;;;;9.20;1.70;;;;;;;;;;5032560;28;20044;-75
2022/05/18 04:39:04;;;;;;;9.10;2.58;;;;;;;;;;5033538;28;20049;-74
2022/05/18 04:41:30;;;;;;;5.97;1.95;;;;;;;;;;5035111;28;20117;-74
2022/05/18 04:43:56;;;;;;;11.35;2.60;;;;;;;;;;5035976;28;20037;-74
2022/05/18 04:46:22;;;;;;;12.57;3.00;;;;;;;;;;5039766;28;20060;-79
2022/05/18 04:48:48;;;;;;;10.65;2.22;;;;;;;;;;5043777;28;20092;-74
2022/05/18 04:51:14;;;;;;;11.88;2.53;;;;;;;;;;5036439;28;20466;-76
2022/05/18 04:53:40;;;;;;;8.65;1.90;;;;;;;;;;5036494;28;20021;-75
2022/05/18 04:56:06;;;;;;;4.97;1.95;;;;;;;;;;5037726;28;20494;-74
2022/05/18 04:58:33;;;;;;;14.55;2.10;;;;;;;;;;5035803;28;20028;-75
2022/05/18 05:01:00;;;;;;;14.70;2.60;;;;;;;;;;5031916;28;20037;-75
2022/05/18 05:03:26;;;;;;;12.73;2.08;;;;;;;;;;5033174;28;20036;-74
2022/05/18 05:05:52;;;;;;;5.20;2.03;;;;;;;;;;5032738;28;20402;-75
2022/05/18 05:08:18;;;;;;;11.25;2.50;;;;;;;;;;5031945;28;20029;-74
2022/05/18 05:10:44;;;;;;;10.77;2.17;;;;;;;;;;5033166;28;20025;-74
2022/05/18 05:13:10;;;;;;;8.98;1.98;;;;;;;;;;5033359;28;20061;-74
2022/05/18 05:15:37;;;;;;;8.85;2.25;;;;;;;;;;5034403;28;20022;-76
2022/05/18 05:18:03;;;;;;;7.13;2.42;;;;;;;;;;5032956;28;20621;-75
2022/05/18 05:20:29;;;;;;;19.25;2.17;;;;;;;;;;5033562;28;20029;-76
2022/05/18 05:22:54;;;;;;;10.65;2.20;;;;;;;;;;5032319;28;20475;-74
2022/05/18 05:25:21;;;;;;;11.18;2.05;;;;;;;;;;5032413;28;20068;-72
2022/05/18 05:27:47;;;;;;;12.52;1.95;;;;;;;;;;5032492;28;20030;-74
2022/05/18 05:30:13;;;;;;;11.05;2.13;;;;;;;;;;5032926;28;20084;-73
2022/05/18 05:32:39;;;;;;;8.63;2.47;;;;;;;;;;5033131;28;20105;-74
2022/05/18 05:35:06;;;;;;;8.98;2.20;;;;;;;;;;5034203;28;20029;-75
2022/05/18 05:37:32;;;;;;;4.90;2.20;;;;;;;;;;5041009;28;20017;-73
2022/05/18 05:39:58;;;;;;;4.13;2.13;;;;;;;;;;5040510;28;20442;-74
2022/05/18 05:42:24;;;;;;;9.13;2.40;;;;;;;;;;5041492;28;20033;-74
2022/05/18 05:44:50;;;;;;;8.60;2.85;;;;;;;;;;5042469;28;20481;-74
2022/05/18 05:47:16;;;;;;;8.43;2.13;;;;;;;;;;5043119;28;20030;-74
2022/05/18 05:49:42;;;;;;;6.80;2.53;;;;;;;;;;5048705;28;20046;-76
2022/05/18 05:52:09;;;;;;;12.68;2.45;;;;;;;;;;5043910;28;20025;-75
2022/05/18 05:54:35;;;;;;;5.43;2.38;;;;;;;;;;5036748;28;20032;-75
2022/05/18 05:57:04;;;;;;;6.93;2.50;;;;;;;;;;5036847;28;20023;-75
2022/05/18 05:59:31;;;;;;;13.43;2.88;;;;;;;;;;5035132;28;20572;-76
2022/05/18 06:02:04;;;;;;;12.60;3.38;;;;;;;;;;5034181;28;20402;-74
2022/05/18 06:04:31;;;;;;;14.65;3.00;;;;;;;;;;5034531;28;20060;-76
2022/05/18 06:06:57;;;;;;;12.75;3.40;;;;;;;;;;5034463;28;20083;-75
2022/05/18 06:09:23;;;;;;;10.40;3.10;;;;;;;;;;5033793;28;20105;-72
2022/05/18 06:11:50;;;;;;;9.93;3.53;;;;;;;;;;5032649;28;20026;-74
2022/05/18 06:14:16;;;;;;;7.72;3.08;;;;;;;;;;5032177;28;20024;-76
2022/05/18 06:16:42;;;;;;;7.07;2.85;;;;;;;;;;5032472;28;20025;-75
2022/05/18 06:19:08;;;;;;;13.85;3.95;;;;;;;;;;5032701;28;20032;-78
2022/05/18 06:21:34;;;;;;;14.30;3.15;;;;;;;;;;5032165;28;20034;-75
2022/05/18 06:24:00;;;;;;;6.28;3.15;;;;;;;;;;5032561;28;20498;-74
2022/05/18 06:26:27;;;;;;;12.25;3.45;;;;;;;;;;5037287;28;20030;-74
2022/05/18 06:28:53;;;;;;;10.75;3.55;;;;;;;;;;5038268;28;20134;-75
2022/05/18 06:31:19;;;;;;;14.38;4.10;;;;;;;;;;5045985;28;20048;-75
2022/05/18 06:33:45;;;;;;;13.57;3.10;;;;;;;;;;5049235;28;20026;-75
2022/05/18 06:36:11;;;;;;;13.15;3.33;;;;;;;;;;5036651;28;20026;-74
2022/05/18 06:38:37;;;;;;;9.75;3.10;;;;;;;;;;5033538;28;20078;-74
2022/05/18 06:41:21;;;;;;;13.32;3.60;;;;;;;;;;5036743;28;20501;-74
2022/05/18 06:43:58;;;;;;;8.87;3.70;;;;;;;;;;5036415;28;20037;-74
2022/05/18 06:46:25;;;;;;;13.85;3.97;;;;;;;;;;5037057;28;20093;-73
2022/05/18 06:48:51;;;;;;;13.27;3.95;;;;;;;;;;5035461;28;20045;-74
2022/05/18 06:51:21;;;;;;;7.20;3.55;;;;;;;;;;5036371;28;20029;-73
2022/05/18 06:53:48;;;;;;;12.55;4.35;;;;;;;;;;5036612;28;20029;-75
2022/05/18 06:56:14;;;;;;;11.70;4.13;;;;;;;;;;5034984;28;20530;-75
2022/05/18 06:58:41;;;;;;;9.65;4.93;;;;;;;;;;5036073;28;20378;-73
2022/05/18 07:01:07;;;;;;;8.38;3.97;;;;;;;;;;5036505;28;20091;-74
2022/05/18 07:03:34;;;;;;;12.60;4.25;;;;;;;;;;5036584;28;20041;-79
2022/05/18 07:06:00;;;;;;;14.27;4.85;;;;;;;;;;5034260;28;20079;-73
2022/05/18 07:08:26;;;;;;;12.13;4.32;;;;;;;;;;5036657;28;20025;-74
2022/05/18 07:10:52;;;;;;;11.10;4.07;;;;;;;;;;5037590;28;20027;-73
2022/05/18 07:13:18;;;;;;;16.35;5.88;;;;;;;;;;5039200;28;20425;-75
2022/05/18 07:15:45;;;;;;;12.40;4.32;;;;;;;;;;5037316;28;20074;-74
2022/05/18 07:18:11;;;;;;;9.80;5.18;;;;;;;;;;5039005;28;20033;-76
2022/05/18 07:20:36;;;;;;;20.15;6.70;;;;;;;;;;5038796;28;20029;-75
2022/05/18 07:23:02;;;;;;;8.50;5.25;;;;;;;;;;5061616;22;20045;-79
2022/05/18 07:25:28;;;;;;;9.63;4.93;;;;;;;;;;5033764;28;20079;-74
2022/05/18 07:27:54;;;;;;;11.48;5.60;;;;;;;;;;5035807;28;20031;-73
2022/05/18 07:30:20;;;;;;;14.25;5.70;;;;;;;;;;5033863;28;20026;-74
2022/05/18 07:32:46;;;;;;;12.95;4.80;;;;;;;;;;5033858;28;20022;-73
2022/05/18 07:35:13;;;;;;;15.60;4.80;;;;;;;;;;5035342;28;20026;-73
2022/05/18 07:37:38;;;;;;;9.13;5.22;;;;;;;;;;5035671;28;20386;-74
2022/05/18 07:40:06;;;;;;;13.13;5.53;;;;;;;;;;5034452;28;20044;-72
2022/05/18 07:42:32;;;;;;;11.90;5.72;;;;;;;;;;5033886;28;20028;-74
2022/05/18 07:44:58;;;;;;;15.68;6.65;;;;;;;;;;5034879;28;20470;-74
2022/05/18 07:47:32;;;;;;;12.43;5.28;;;;;;;;;;5034465;28;20048;-73
2022/05/18 07:49:58;;;;;;;15.10;5.30;;;;;;;;;;5033887;28;20036;-74
2022/05/18 07:52:24;;;;;;;14.63;6.10;;;;;;;;;;5035101;28;20025;-73
2022/05/18 07:54:50;;;;;;;14.40;5.63;;;;;;;;;;5041956;28;20390;-75
2022/05/18 07:57:17;;;;;;;10.93;6.03;;;;;;;;;;5034367;28;20017;-75
2022/05/18 07:59:43;;;;;;;11.15;5.18;;;;;;;;;;5034523;28;20394;-76
2022/05/18 08:02:09;;;;;;;11.25;5.53;;;;;;;;;;5034655;28;20467;-75
2022/05/18 08:04:35;;;;;;;10.52;5.60;;;;;;;;;;5033569;28;20033;-75
2022/05/18 08:07:01;;;;;;;14.70;5.70;;;;;;;;;;5033221;28;20033;-74
2022/05/18 08:09:27;;;;;;;10.75;5.68;;;;;;;;;;5034917;28;20018;-79
2022/05/18 08:17:23;;;;;;;10.88;5.93;;;;;;;;;;5034162;28;19951;-73
2022/05/18 08:19:49;;;;;;;11.68;5.72;;;;;;;;;;5034094;28;20025;-74
2022/05/18 08:22:16;;;;;;;16.35;6.97;;;;;;;;;;5033056;28;20044;-74
2022/05/18 08:24:42;;;;;;;19.75;5.90;;;;;;;;;;5033599;28;20104;-73
2022/05/18 08:27:14;;;;;;;10.52;6.05;;;;;;;;;;5032990;28;20072;-73
2022/05/18 08:29:40;;;;;;;16.15;6.10;;;;;;;;;;5033144;28;20026;-73
2022/05/18 08:32:06;;;;;;;14.68;5.78;;;;;;;;;;5033647;28;20037;-74
2022/05/18 08:34:33;;;;;;;13.98;6.10;;;;;;;;;;5032796;28;20029;-74
2022/05/18 08:37:00;;;;;;;15.30;5.95;;;;;;;;;;5035217;28;20018;-75
2022/05/18 08:39:26;;;;;;;13.80;6.05;;;;;;;;;;5044970;28;20082;-74
2022/05/18 08:41:52;;;;;;;18.70;6.97;;;;;;;;;;5034074;28;20030;-74
2022/05/18 08:44:25;;;;;;;18.45;6.72;;;;;;;;;;5031304;28;20080;-75
2022/05/18 08:47:06;;;;;;;15.45;6.03;;;;;;;;;;5032697;28;20084;-75
2022/05/18 08:49:39;;;;;;;16.48;6.72;;;;;;;;;;5032439;28;20029;-74
2022/05/18 08:52:05;;;;;;;13.70;6.00;;;;;;;;;;5031904;28;20064;-76
2022/05/18 08:54:36;;;;;;;10.07;5.30;;;;;;;;;;5032468;28;20100;-76
2022/05/18 08:57:04;;;;;;;15.02;5.82;;;;;;;;;;5031991;28;20618;-74
2022/05/18 08:59:34;;;;;;;17.75;8.13;;;;;;;;;;5032310;28;20021;-75
2022/05/18 09:02:03;;;;;;;15.00;6.40;;;;;;;;;;5031908;28;20049;-76
2022/05/18 09:04:39;;;;;;;13.52;5.75;;;;;;;;;;5033120;28;20063;-76
2022/05/18 09:07:07;;;;;;;17.73;6.20;;;;;;;;;;5033080;28;20394;-74
2022/05/18 09:12:33;;;;;;;17.83;6.35;;;;;;;;;;5032133;28;20390;-74
2022/05/18 09:14:59;;;;;;;15.10;6.47;;;;;;;;;;5032918;28;20045;-74
2022/05/18 09:17:34;;;;;;;12.43;6.10;;;;;;;;;;5033579;28;20084;-74
2022/05/18 09:20:00;;;;;;;11.93;5.78;;;;;;;;;;5032264;28;20497;-74
2022/05/18 09:22:45;;;;;;;11.43;6.55;;;;;;;;;;5031955;28;20032;-75
2022/05/18 09:25:17;;;;;;;19.85;6.13;;;;;;;;;;5034213;28;20029;-73
2022/05/18 09:28:02;;;;;;;13.10;7.10;;;;;;;;;;5032183;28;20032;-75
2022/05/18 09:30:51;;;;;;;12.43;6.10;;;;;;;;;;5032300;28;20108;-73
2022/05/18 09:33:35;;;;;;;15.68;7.43;;;;;;;;;;5024362;28;20041;-74
2022/05/18 09:36:20;;;;;;;17.85;6.75;;;;;;;;;;5031686;28;20026;-73
2022/05/18 09:38:50;;;;;;;11.82;6.93;;;;;;;;;;5031742;28;20448;-75
2022/05/18 09:41:19;;;;;;;21.20;7.38;;;;;;;;;;5032043;28;20407;-74
2022/05/18 09:43:48;;;;;;;17.88;7.05;;;;;;;;;;5033166;28;20026;-75
2022/05/18 09:46:16;;;;;;;14.25;7.40;;;;;;;;;;5030670;28;20022;-74
2022/05/18 09:48:45;;;;;;;17.70;7.80;;;;;;;;;;5032620;28;20401;-74
2022/05/18 09:51:11;;;;;;;15.10;7.47;;;;;;;;;;5032392;28;20025;-73
2022/05/18 09:53:38;;;;;;;15.95;7.65;;;;;;;;;;5032927;28;20140;-73
2022/05/18 09:56:08;;;;;;;13.32;8.18;;;;;;;;;;5031737;28;20028;-74
2022/05/18 09:58:37;;;;;;;15.70;7.45;;;;;;;;;;5032050;28;20033;-73
2022/05/18 10:09:42;;;;;;;13.98;7.47;;;;;;;;;;5035382;28;20088;-74
2022/05/18 10:12:22;;;;;;;20.23;7.15;;;;;;;;;;5032795;28;20374;-73
2022/05/18 10:14:49;;;;;;;17.02;6.68;;;;;;;;;;5036113;28;20029;-74
2022/05/18 10:17:16;;;;;;;13.57;7.32;;;;;;;;;;5036198;28;20103;-74
2022/05/18 10:19:45;;;;;;;16.20;8.07;;;;;;;;;;5035609;28;20544;-73
2022/05/18 10:22:13;;;;;;;14.63;8.32;;;;;;;;;;5035648;28;20367;-75
2022/05/18 10:24:42;;;;;;;14.95;7.60;;;;;;;;;;5035766;28;20045;-73
2022/05/18 10:27:12;;;;;;;13.65;7.70;;;;;;;;;;5035478;28;20026;-72
2022/05/18 10:29:39;;;;;;;16.65;7.40;;;;;;;;;;5035493;28;20083;-74
2022/05/18 10:32:09;;;;;;;13.27;7.07;;;;;;;;;;5034091;28;20028;-74
2022/05/18 10:34:46;;;;;;;12.27;7.78;;;;;;;;;;5035457;28;20394;-73
2022/05/18 10:37:13;;;;;;;14.63;8.23;;;;;;;;;;5034911;28;20032;-74
2022/05/18 10:39:39;;;;;;;14.73;7.55;;;;;;;;;;5035750;28;20025;-73
2022/05/18 10:42:10;;;;;;;14.20;7.85;;;;;;;;;;5036232;28;20131;-74
2022/05/18 10:44:37;;;;;;;9.95;6.75;;;;;;;;;;5035267;28;20617;-74
2022/05/18 10:47:13;;;;;;;11.35;6.57;;;;;;;;;;5034923;28;20025;-73
2022/05/18 10:49:41;;;;;;;18.38;7.18;;;;;;;;;;5035614;28;20087;-73
2022/05/18 10:52:15;;;;;;;15.20;7.25;;;;;;;;;;5036524;28;20371;-74
2022/05/18 10:54:52;;;;;;;15.43;7.72;;;;;;;;;;5035359;28;20025;-73
2022/05/18 10:57:28;;;;;;;16.25;7.55;;;;;;;;;;5035558;28;20030;-74
2022/05/18 10:59:56;;;;;;;14.30;8.00;;;;;;;;;;5035660;28;20032;-75
2022/05/18 11:02:31;;;;;;;20.58;7.63;;;;;;;;;;5040262;28;20064;-73
2022/05/18 11:05:26;;;;;;;17.70;8.45;;;;;;;;;;5045747;28;20099;-73
2022/05/18 11:07:52;;;;;;;17.27;7.03;;;;;;;;;;4988301;28;20106;-73
2022/05/18 11:10:18;;;;;;;14.38;8.02;;;;;;;;;;5042582;28;20056;-73
2022/05/18 11:12:47;;;;;;;12.75;7.40;;;;;;;;;;5039295;28;20056;-75
2022/05/18 11:15:33;;;;;;;36.88;25.27;;;;;;;;;;5034998;28;20092;-74
2022/05/18 11:18:18;;;;;;;17.33;7.70;;;;;;;;;;5024262;28;20033;-74
2022/05/18 11:20:59;;;;;;;16.67;8.13;;;;;;;;;;5035200;28;20465;-74
2022/05/18 11:23:28;;;;;;;15.18;6.95;;;;;;;;;;5035960;28;20057;-75
2022/05/18 11:25:54;;;;;;;12.70;6.82;;;;;;;;;;5037336;28;20458;-74
2022/05/18 11:28:39;;;;;;;12.88;7.32;;;;;;;;;;5037785;28;20025;-73
2022/05/18 11:31:05;;;;;;;;;;;;;;;;;;5035236;28;20025;-72
2022/05/18 11:33:41;;;;;;;22.33;11.77;;;;;;;;;;5034770;28;19909;-72
2022/05/18 11:36:13;;;;;;;13.98;7.90;;;;;;;;;;5034401;28;20029;-74
2022/05/18 11:38:55;;;;;;;11.20;7.07;;;;;;;;;;5034804;28;20033;-73
2022/05/18 11:41:24;;;;;;;11.77;6.93;;;;;;;;;;5034597;28;20028;-72
2022/05/18 11:44:03;;;;;;;13.55;7.72;;;;;;;;;;5034392;28;20108;-73
2022/05/18 11:46:47;;;;;;;18.55;7.85;;;;;;;;;;5037642;28;20040;-72
2022/05/18 11:49:18;;;;;;;15.15;7.70;;;;;;;;;;5034252;28;20092;-73
2022/05/18 11:51:44;;;;;;;12.18;7.20;;;;;;;;;;5034536;28;20037;-74
2022/05/18 11:54:10;;;;;;;11.50;7.30;;;;;;;;;;5034467;28;20021;-74
2022/05/18 11:56:40;;;;;;;10.75;6.47;;;;;;;;;;5033846;28;20030;-74
2022/05/18 11:59:41;;;;;;;18.35;7.47;;;;;;;;;;5033849;28;20022;-74
2022/05/18 12:02:13;;;;;;;14.88;9.32;;;;;;;;;;5036214;28;20075;-73
2022/05/18 12:04:42;;;;;;;12.63;7.78;;;;;;;;;;5036259;28;20040;-72
2022/05/18 12:07:20;;;;;;;16.85;6.63;;;;;;;;;;5037806;28;20514;-72
2022/05/18 12:09:53;;;;;;;14.43;7.18;;;;;;;;;;5037766;28;20034;-74
2022/05/18 12:12:25;;;;;;;10.35;7.15;;;;;;;;;;5038172;28;20026;-74
2022/05/18 12:14:57;;;;;;;17.58;8.45;;;;;;;;;;5039889;28;20028;-73
2022/05/18 12:17:23;;;;;;;18.73;7.78;;;;;;;;;;5039643;28;20028;-74
2022/05/18 12:20:01;;;;;;;14.95;7.10;;;;;;;;;;5037319;28;20021;-74
2022/05/18 12:22:32;;;;;;;19.58;6.20;;;;;;;;;;5040433;28;20033;-73
2022/05/18 12:24:59;;;;;;;14.98;6.70;;;;;;;;;;5039589;28;20040;-73
2022/05/18 12:27:26;;;;;;;15.98;5.88;;;;;;;;;;5041357;28;20148;-73
2022/05/18 12:29:54;;;;;;;11.82;6.53;;;;;;;;;;5036828;28;20037;-74
2022/05/18 12:32:20;;;;;;;13.90;6.10;;;;;;;;;;5039788;28;20036;-72
2022/05/18 12:35:01;;;;;;;18.02;7.00;;;;;;;;;;5039711;28;20482;-74
2022/05/18 12:37:27;;;;;;;13.18;6.20;;;;;;;;;;5040547;28;20014;-73
2022/05/18 12:40:05;;;;;;;13.23;5.70;;;;;;;;;;5038739;28;20096;-73
2022/05/18 12:42:34;;;;;;;10.52;5.88;;;;;;;;;;5036212;28;20454;-73
2022/05/18 12:45:09;;;;;;;10.70;5.45;;;;;;;;;;5034177;28;20382;-73
2022/05/18 12:47:46;;;;;;;10.77;5.63;;;;;;;;;;5033924;28;20037;-74
2022/05/18 12:50:14;;;;;;;12.02;5.28;;;;;;;;;;5034473;28;20021;-75
2022/05/18 12:52:45;;;;;;;14.48;5.20;;;;;;;;;;5036170;28;20032;-74
2022/05/18 12:55:23;;;;;;;11.93;6.25;;;;;;;;;;5033936;28;20025;-74
2022/05/18 12:57:52;;;;;;;10.85;5.85;;;;;;;;;;5033262;28;20021;-74
2022/05/18 13:00:27;;;;;;;11.65;5.18;;;;;;;;;;5037362;28;20028;-74
2022/05/18 13:02:55;;;;;;;14.57;6.07;;;;;;;;;;5039769;28;20072;-73
2022/05/18 13:05:24;;;;;;;13.93;5.60;;;;;;;;;;5035594;28;20061;-73
2022/05/18 13:07:50;;;;;;;14.20;6.72;;;;;;;;;;5036835;28;20025;-76
2022/05/18 13:10:16;;;;;;;14.30;6.30;;;;;;;;;;5037708;28;20397;-74
2022/05/18 13:12:46;;;;;;;12.90;5.13;;;;;;;;;;5034832;28;20471;-73
2022/05/18 13:15:21;;;;;;;10.52;5.40;;;;;;;;;;5033894;28;20045;-74
2022/05/18 13:18:10;;;;;;;10.10;5.47;;;;;;;;;;5033492;28;20017;-74
2022/05/18 13:20:42;;;;;;;16.42;5.72;;;;;;;;;;4997914;28;20421;-74
2022/05/18 13:23:24;;;;;;;10.50;4.93;;;;;;;;;;5036539;28;20565;-75
2022/05/18 13:25:56;;;;;;;11.32;4.97;;;;;;;;;;5037352;28;20298;-74
2022/05/18 13:28:22;;;;;;;13.30;5.05;;;;;;;;;;5037423;28;20478;-74
2022/05/18 13:30:50;;;;;;;8.75;4.68;;;;;;;;;;5037429;28;20031;-74
2022/05/18 13:33:16;;;;;;;9.60;4.70;;;;;;;;;;5036520;28;20018;-74
2022/05/18 13:35:43;;;;;;;11.32;4.57;;;;;;;;;;5033575;28;20056;-74
2022/05/18 13:38:14;;;;;;;17.48;8.95;;;;;;;;;;5034292;28;20107;-73
2022/05/18 13:40:46;;;;;;;11.70;4.40;;;;;;;;;;5036752;28;20022;-76
2022/05/18 13:43:14;;;;;;;9.25;3.40;;;;;;;;;;5034100;28;20022;-74
2022/05/18 13:45:42;;;;;;;9.25;2.90;;;;;;;;;;5033297;28;20035;-74
2022/05/18 13:48:10;;;;;;;7.90;3.00;;;;;;;;;;5034526;28;20368;-74
2022/05/18 13:50:37;;;;;;;7.25;3.17;;;;;;;;;;5040032;28;20018;-74
2022/05/18 13:53:06;;;;;;;6.78;3.10;;;;;;;;;;5037622;28;20030;-74
2022/05/18 13:55:37;;;;;;;5.05;3.13;;;;;;;;;;5039885;28;20049;-73
2022/05/18 13:58:07;;;;;;;9.30;3.40;;;;;;;;;;5036051;28;20025;-75
2022/05/18 14:00:38;;;;;;;5.07;3.30;;;;;;;;;;5037450;28;20469;-74
2022/05/18 14:03:05;;;;;;;7.65;2.60;;;;;;;;;;5036948;28;20025;-74
2022/05/18 14:05:32;;;;;;;7.50;2.78;;;;;;;;;;5037408;28;20025;-73
2022/05/18 14:07:58;;;;;;;7.47;2.50;;;;;;;;;;5037030;28;20025;-74
2022/05/18 14:10:27;;;;;;;4.47;2.45;;;;;;;;;;5037779;28;20081;-74
2022/05/18 14:12:57;;;;;;;6.22;2.92;;;;;;;;;;5037136;28;20018;-73
2022/05/18 14:15:22;;;;;;;7.47;3.30;;;;;;;;;;5036970;28;20060;-73
2022/05/18 14:17:50;;;;;;;5.93;3.03;;;;;;;;;;5037389;28;20025;-74
2022/05/18 14:20:20;;;;;;;7.57;2.50;;;;;;;;;;5037482;28;20044;-74
2022/05/18 14:22:48;;;;;;;13.55;2.55;;;;;;;;;;5037891;28;20116;-74
2022/05/18 14:25:15;;;;;;;9.63;2.50;;;;;;;;;;5037585;28;20033;-73
2022/05/18 14:27:44;;;;;;;7.53;3.83;;;;;;;;;;5037346;28;20113;-74
2022/05/18 14:30:42;;;;;;;9.98;3.00;;;;;;;;;;5037154;28;20033;-72
2022/05/18 14:33:29;;;;;;;10.00;2.30;;;;;;;;;;5003943;28;20038;-74
2022/05/18 14:35:56;;;;;;;7.07;2.58;;;;;;;;;;5037413;28;20459;-74
2022/05/18 14:38:25;;;;;;;9.20;2.72;;;;;;;;;;5038683;28;20040;-74
2022/05/18 14:40:52;;;;;;;7.82;3.00;;;;;;;;;;5038625;28;20510;-76
2022/05/18 14:43:22;;;;;;;7.70;2.72;;;;;;;;;;5037698;28;20100;-73
2022/05/18 14:45:54;;;;;;;7.18;2.58;;;;;;;;;;5036431;28;20018;-73
2022/05/18 14:48:27;;;;;;;5.10;2.28;;;;;;;;;;5037777;28;20427;-74
2022/05/18 14:51:07;;;;;;;5.72;2.22;;;;;;;;;;5037082;28;20029;-74
2022/05/18 14:53:40;;;;;;;5.15;2.20;;;;;;;;;;5036853;28;20037;-73
2022/05/18 14:56:08;;;;;;;4.38;1.90;;;;;;;;;;5036201;28;20033;-75
2022/05/18 14:58:45;;;;;;;6.80;3.22;;;;;;;;;;5038100;28;20033;-77
2022/05/18 15:01:17;;;;;;;8.73;2.85;;;;;;;;;;5034911;28;20032;-73
2022/05/18 15:03:44;;;;;;;3.83;1.90;;;;;;;;;;5036197;28;20361;-73
2022/05/18 15:06:10;;;;;;;5.32;2.20;;;;;;;;;;5035634;28;20021;-74